createdAt,value
2023-10-31T00:01:52.751Z,0.10
2023-10-31T00:04:19.981Z,0.10
2023-10-31T00:06:47.200Z,0.15
2023-10-31T00:09:14.385Z,0.10
2023-10-31T00:11:44.122Z,0.20
2023-10-31T00:14:29.187Z,0.10
2023-10-31T00:16:58.524Z,0.25
2023-10-31T00:19:25.752Z,0.08
2023-10-31T00:21:52.922Z,0.50
2023-10-31T00:24:20.560Z,0.50
2023-10-31T00:26:47.778Z,0.17
2023-10-31T00:29:15.683Z,0.00
2023-10-31T00:31:43.003Z,0.20
2023-10-31T00:34:11.344Z,0.20
2023-10-31T00:36:39.500Z,0.00
2023-10-31T00:39:06.983Z,0.10
2023-10-31T00:41:34.386Z,0.30
2023-10-31T00:44:01.541Z,0.10
2023-10-31T00:46:28.805Z,0.00
2023-10-31T00:48:56.198Z,0.20
2023-10-31T00:51:23.350Z,0.10
2023-10-31T00:53:50.535Z,0.10
2023-10-31T00:56:17.809Z,0.13
2023-10-31T00:58:44.984Z,0.10
2023-10-31T01:01:12.267Z,0.25
2023-10-31T01:03:39.506Z,0.10
2023-10-31T01:06:06.705Z,0.38
2023-10-31T01:08:34.018Z,0.10
2023-10-31T01:11:01.222Z,0.10
2023-10-31T01:13:28.420Z,0.10
2023-10-31T01:15:55.614Z,0.20
2023-10-31T01:18:22.776Z,0.10
2023-10-31T01:20:50.048Z,0.10
2023-10-31T01:23:17.224Z,0.10
2023-10-31T01:25:44.534Z,0.00
2023-10-31T01:28:11.972Z,0.10
2023-10-31T01:30:39.226Z,0.10
2023-10-31T01:33:06.508Z,0.10
2023-10-31T01:35:34.288Z,0.00
2023-10-31T01:38:01.412Z,0.10
2023-10-31T01:40:28.581Z,0.20
2023-10-31T01:42:57.153Z,0.00
2023-10-31T01:45:24.335Z,0.10
2023-10-31T01:47:51.543Z,0.10
2023-10-31T01:50:19.480Z,0.00
2023-10-31T01:52:47.168Z,0.30
2023-10-31T01:55:14.436Z,0.10
2023-10-31T01:57:41.878Z,0.10
2023-10-31T02:00:09.258Z,0.10
2023-10-31T02:02:38.027Z,0.05
2023-10-31T02:05:05.455Z,0.10
2023-10-31T02:07:32.713Z,0.10
2023-10-31T02:09:59.917Z,0.00
2023-10-31T02:12:42.412Z,0.15
2023-10-31T02:15:09.987Z,0.10
2023-10-31T02:17:37.182Z,0.10
2023-10-31T02:20:04.990Z,0.00
2023-10-31T02:22:32.178Z,0.03
2023-10-31T02:24:59.311Z,0.10
2023-10-31T02:27:26.447Z,0.10
2023-10-31T02:29:53.685Z,0.10
2023-10-31T02:32:20.955Z,0.00
2023-10-31T02:34:48.263Z,0.13
2023-10-31T02:37:15.471Z,0.20
2023-10-31T02:39:42.621Z,0.10
2023-10-31T02:42:12.007Z,0.00
2023-10-31T02:44:39.093Z,0.00
2023-10-31T02:47:06.542Z,0.00
2023-10-31T02:49:33.756Z,0.10
2023-10-31T02:52:00.880Z,0.10
2023-10-31T02:54:28.055Z,0.00
2023-10-31T02:56:55.240Z,0.00
2023-10-31T02:59:22.354Z,0.10
2023-10-31T03:01:49.758Z,0.10
2023-10-31T03:04:17.060Z,0.00
2023-10-31T03:06:44.227Z,0.00
2023-10-31T03:09:11.407Z,0.00
2023-10-31T03:11:38.566Z,0.05
2023-10-31T03:14:05.812Z,0.50
2023-10-31T03:16:33.784Z,0.10
2023-10-31T03:19:00.976Z,0.10
2023-10-31T03:21:28.249Z,0.30
2023-10-31T03:23:56.847Z,0.00
2023-10-31T03:26:24.133Z,0.10
2023-10-31T03:28:51.475Z,0.30
2023-10-31T03:31:18.664Z,0.10
2023-10-31T03:33:45.799Z,0.00
2023-10-31T03:36:13.000Z,0.00
2023-10-31T03:38:40.481Z,0.00
2023-10-31T03:41:07.870Z,0.00
2023-10-31T03:43:35.259Z,0.10
2023-10-31T03:46:02.472Z,0.20
2023-10-31T03:48:29.680Z,0.10
2023-10-31T03:50:56.843Z,0.20
2023-10-31T03:53:23.993Z,0.00
2023-10-31T03:55:51.216Z,0.00
2023-10-31T03:58:18.351Z,0.10
2023-10-31T04:00:45.539Z,0.10
2023-10-31T04:03:12.757Z,0.10
2023-10-31T04:05:40.016Z,0.10
2023-10-31T04:08:07.255Z,0.00
2023-10-31T04:10:34.398Z,0.00
2023-10-31T04:13:01.502Z,0.10
2023-10-31T04:15:28.733Z,0.10
2023-10-31T04:17:55.927Z,0.15
2023-10-31T04:20:23.256Z,0.20
2023-10-31T04:22:50.529Z,0.00
2023-10-31T04:25:17.798Z,0.10
2023-10-31T04:27:45.041Z,0.00
2023-10-31T04:30:14.855Z,0.40
2023-10-31T04:32:42.704Z,0.10
2023-10-31T04:35:10.428Z,0.10
2023-10-31T04:37:37.751Z,0.15
2023-10-31T04:40:06.082Z,0.00
2023-10-31T04:42:35.487Z,0.03
2023-10-31T04:45:02.916Z,0.30
2023-10-31T04:47:30.552Z,0.40
2023-10-31T04:49:57.922Z,0.10
2023-10-31T04:52:27.104Z,0.33
2023-10-31T04:54:54.802Z,0.10
2023-10-31T04:57:21.987Z,0.10
2023-10-31T04:59:49.236Z,0.10
2023-10-31T05:02:16.468Z,0.05
2023-10-31T05:04:43.776Z,0.00
2023-10-31T05:07:11.289Z,0.00
2023-10-31T05:09:38.765Z,0.10
2023-10-31T05:12:08.375Z,0.10
2023-10-31T05:14:35.538Z,0.20
2023-10-31T05:17:02.818Z,0.10
2023-10-31T05:19:30.262Z,0.10
2023-10-31T05:21:57.406Z,0.10
2023-10-31T05:24:24.528Z,0.00
2023-10-31T05:26:51.735Z,0.10
2023-10-31T05:29:18.937Z,0.10
2023-10-31T05:31:46.231Z,0.10
2023-10-31T05:34:13.437Z,0.10
2023-10-31T05:36:40.612Z,0.13
2023-10-31T05:39:07.787Z,0.15
2023-10-31T05:41:36.610Z,0.10
2023-10-31T05:44:03.980Z,0.10
2023-10-31T05:46:31.205Z,0.10
2023-10-31T05:48:58.427Z,0.20
2023-10-31T05:51:26.916Z,0.20
2023-10-31T05:53:54.285Z,0.10
2023-10-31T05:56:21.429Z,0.10
2023-10-31T05:58:48.615Z,0.10
2023-10-31T06:01:15.894Z,0.10
2023-10-31T06:03:45.223Z,0.00
2023-10-31T06:06:13.448Z,0.05
2023-10-31T06:08:41.131Z,0.00
2023-10-31T06:11:08.691Z,0.00
2023-10-31T06:13:35.962Z,0.10
2023-10-31T06:16:03.274Z,0.10
2023-10-31T06:18:30.620Z,0.10
2023-10-31T06:20:58.619Z,0.10
2023-10-31T06:23:25.907Z,0.10
2023-10-31T06:25:53.141Z,0.10
2023-10-31T06:28:20.254Z,0.10
2023-10-31T06:30:47.475Z,0.10
2023-10-31T06:33:14.754Z,0.00
2023-10-31T06:35:41.977Z,0.10
2023-10-31T06:38:09.136Z,0.10
2023-10-31T06:40:36.461Z,0.10
2023-10-31T06:43:03.803Z,0.10
2023-10-31T06:45:30.978Z,0.10
2023-10-31T06:47:58.238Z,0.10
2023-10-31T06:50:26.442Z,0.10
2023-10-31T06:52:53.652Z,0.08
2023-10-31T06:55:20.955Z,0.10
2023-10-31T06:57:48.162Z,0.20
2023-10-31T07:00:15.852Z,0.30
2023-10-31T07:02:43.206Z,0.10
2023-10-31T07:05:10.504Z,0.10
2023-10-31T07:07:38.084Z,0.10
2023-10-31T07:10:05.464Z,0.00
2023-10-31T07:12:33.811Z,0.08
2023-10-31T07:15:02.812Z,0.10
2023-10-31T07:17:30.036Z,0.10
2023-10-31T07:19:57.311Z,0.10
2023-10-31T07:22:25.799Z,0.00
2023-10-31T07:24:53.355Z,0.80
2023-10-31T07:27:20.542Z,0.10
2023-10-31T07:29:47.997Z,0.20
2023-10-31T07:32:15.280Z,0.10
2023-10-31T07:34:43.507Z,0.10
2023-10-31T07:37:10.735Z,0.10
2023-10-31T07:39:37.918Z,0.00
2023-10-31T07:42:05.332Z,0.08
2023-10-31T07:44:32.728Z,0.10
2023-10-31T07:46:59.891Z,0.43
2023-10-31T07:49:27.039Z,0.10
2023-10-31T07:51:54.239Z,0.10
2023-10-31T07:54:21.601Z,0.10
2023-10-31T07:56:48.883Z,0.10
2023-10-31T07:59:16.012Z,0.10
2023-10-31T08:01:43.294Z,0.10
2023-10-31T08:04:13.421Z,0.10
2023-10-31T08:06:40.543Z,0.20
2023-10-31T08:09:09.687Z,0.10
2023-10-31T08:11:36.989Z,0.00
2023-10-31T08:14:06.651Z,0.10
2023-10-31T08:16:33.942Z,0.20
2023-10-31T08:19:01.084Z,0.32
2023-10-31T08:21:34.277Z,0.10
2023-10-31T08:24:01.836Z,0.13
2023-10-31T08:26:29.000Z,0.30
2023-10-31T08:28:56.328Z,0.38
2023-10-31T08:31:23.530Z,0.20
2023-10-31T08:33:50.764Z,1.00
2023-10-31T08:36:18.109Z,0.30
2023-10-31T08:38:45.326Z,0.50
2023-10-31T08:41:12.572Z,0.30
2023-10-31T08:43:39.771Z,0.30
2023-10-31T08:46:07.144Z,0.30
2023-10-31T08:48:34.405Z,0.25
2023-10-31T08:51:01.528Z,0.65
2023-10-31T08:53:28.902Z,0.30
2023-10-31T08:55:56.362Z,0.30
2023-10-31T08:58:23.511Z,0.30
2023-10-31T09:00:50.919Z,0.50
2023-10-31T09:03:18.188Z,0.32
2023-10-31T09:05:45.490Z,0.30
2023-10-31T09:08:12.688Z,0.40
2023-10-31T09:10:39.965Z,0.40
2023-10-31T09:13:07.204Z,0.57
2023-10-31T09:15:34.370Z,0.50
2023-10-31T09:18:01.644Z,0.40
2023-10-31T09:20:30.501Z,0.50
2023-10-31T09:22:57.882Z,0.55
2023-10-31T09:25:25.056Z,0.45
2023-10-31T09:27:52.331Z,0.32
2023-10-31T09:30:21.339Z,0.30
2023-10-31T09:32:49.622Z,0.43
2023-10-31T09:35:16.964Z,0.88
2023-10-31T09:37:44.779Z,0.40
2023-10-31T09:40:12.090Z,0.70
2023-10-31T09:42:39.781Z,0.30
2023-10-31T09:45:07.325Z,0.45
2023-10-31T09:47:34.609Z,0.22
2023-10-31T09:50:01.833Z,0.40
2023-10-31T09:52:29.212Z,0.40
2023-10-31T09:54:56.610Z,0.50
2023-10-31T09:57:23.947Z,0.60
2023-10-31T09:59:52.731Z,0.60
2023-10-31T10:02:21.143Z,0.40
2023-10-31T10:04:49.772Z,0.50
2023-10-31T10:07:19.071Z,0.47
2023-10-31T10:09:47.304Z,0.90
2023-10-31T10:12:15.622Z,3.05
2023-10-31T10:14:42.902Z,0.63
2023-10-31T10:17:16.174Z,0.60
2023-10-31T10:19:43.658Z,0.98
2023-10-31T10:22:11.389Z,0.70
2023-10-31T10:24:41.785Z,0.75
2023-10-31T10:27:10.252Z,1.20
2023-10-31T10:29:38.949Z,0.77
2023-10-31T10:32:10.138Z,0.63
2023-10-31T10:34:37.758Z,0.63
2023-10-31T10:37:04.794Z,0.50
2023-10-31T10:39:35.072Z,0.70
2023-10-31T10:42:03.256Z,0.85
2023-10-31T10:44:39.326Z,0.60
2023-10-31T10:47:07.607Z,1.10
2023-10-31T10:49:37.400Z,1.00
2023-10-31T10:52:12.218Z,0.88
2023-10-31T10:54:44.180Z,0.70
2023-10-31T10:57:17.850Z,0.88
2023-10-31T10:59:50.353Z,1.00
2023-10-31T11:02:17.543Z,0.90
2023-10-31T11:04:45.326Z,0.60
2023-10-31T11:07:13.219Z,0.68
2023-10-31T11:09:41.196Z,0.80
2023-10-31T11:12:08.989Z,0.70
2023-10-31T11:14:36.824Z,0.85
2023-10-31T11:17:09.263Z,0.80
2023-10-31T11:19:37.149Z,0.80
2023-10-31T11:22:04.400Z,0.80
2023-10-31T11:24:35.428Z,0.80
2023-10-31T11:27:02.607Z,0.80
2023-10-31T11:29:30.816Z,0.75
2023-10-31T11:31:58.096Z,0.70
2023-10-31T11:34:27.873Z,0.63
2023-10-31T11:36:55.391Z,0.82
2023-10-31T11:39:26.624Z,0.85
2023-10-31T11:41:57.471Z,0.80
2023-10-31T11:44:25.228Z,0.90
2023-10-31T11:46:53.554Z,0.80
2023-10-31T11:49:40.644Z,0.70
2023-10-31T11:52:23.656Z,0.90
2023-10-31T11:54:51.051Z,0.80
2023-10-31T11:57:33.957Z,0.70
2023-10-31T12:00:01.216Z,1.00
2023-10-31T12:02:28.394Z,1.13
2023-10-31T12:05:08.503Z,0.77
2023-10-31T12:07:43.691Z,1.10
2023-10-31T12:10:11.307Z,0.90
2023-10-31T12:12:38.465Z,0.93
2023-10-31T12:15:09.293Z,1.05
2023-10-31T12:17:37.016Z,1.10
2023-10-31T12:20:06.092Z,0.98
2023-10-31T12:22:33.373Z,1.20
2023-10-31T12:25:09.428Z,1.05
2023-10-31T12:27:45.358Z,1.08
2023-10-31T12:30:13.402Z,1.27
2023-10-31T12:32:42.979Z,1.30
2023-10-31T12:35:16.825Z,1.15
2023-10-31T12:37:45.471Z,1.38
2023-10-31T12:40:13.783Z,1.20
2023-10-31T12:42:41.190Z,1.38
2023-10-31T12:45:09.275Z,1.20
2023-10-31T12:47:36.747Z,1.10
2023-10-31T12:50:09.617Z,0.90
2023-10-31T12:52:53.040Z,0.80
2023-10-31T12:55:21.075Z,0.87
2023-10-31T12:57:48.609Z,1.10
2023-10-31T13:00:16.314Z,0.82
2023-10-31T13:02:44.902Z,0.73
2023-10-31T13:05:13.387Z,1.20
2023-10-31T13:07:41.665Z,1.00
2023-10-31T13:10:11.002Z,5.03
2023-10-31T13:12:38.306Z,1.00
2023-10-31T13:15:06.563Z,1.00
2023-10-31T13:17:33.912Z,0.80
2023-10-31T13:20:01.237Z,1.10
2023-10-31T13:22:28.477Z,0.70
2023-10-31T13:24:55.700Z,0.60
2023-10-31T13:27:22.884Z,0.80
2023-10-31T13:29:50.850Z,0.98
2023-10-31T13:32:18.281Z,0.77
2023-10-31T13:34:45.606Z,0.80
2023-10-31T13:37:12.803Z,0.70
2023-10-31T13:39:40.032Z,1.10
2023-10-31T13:42:07.403Z,0.80
2023-10-31T13:44:36.840Z,1.15
2023-10-31T13:47:04.596Z,0.73
2023-10-31T13:49:31.637Z,1.08
2023-10-31T13:51:58.824Z,0.70
2023-10-31T13:54:26.048Z,0.73
2023-10-31T13:56:53.420Z,0.90
2023-10-31T13:59:21.037Z,1.00
2023-10-31T14:01:48.720Z,0.80
2023-10-31T14:04:16.400Z,0.90
2023-10-31T14:06:44.060Z,0.95
2023-10-31T14:09:12.943Z,1.10
2023-10-31T14:11:40.722Z,0.80
2023-10-31T14:14:08.208Z,0.90
2023-10-31T14:16:35.514Z,0.98
2023-10-31T14:19:04.040Z,1.13
2023-10-31T14:21:31.462Z,1.05
2023-10-31T14:24:04.778Z,1.08
2023-10-31T14:26:39.757Z,1.17
2023-10-31T14:29:08.240Z,0.93
2023-10-31T14:31:40.082Z,1.00
2023-10-31T14:34:07.323Z,1.10
2023-10-31T14:36:34.502Z,1.25
2023-10-31T14:39:01.579Z,1.20
2023-10-31T14:41:28.783Z,0.90
2023-10-31T14:43:56.075Z,1.03
2023-10-31T14:46:23.759Z,1.00
2023-10-31T14:48:51.171Z,1.00
2023-10-31T14:51:18.462Z,1.00
2023-10-31T14:53:48.114Z,1.08
2023-10-31T14:56:17.301Z,1.03
2023-10-31T14:58:44.661Z,1.23
2023-10-31T15:01:12.242Z,0.90
2023-10-31T15:03:39.577Z,1.10
2023-10-31T15:06:11.153Z,1.20
2023-10-31T15:08:38.378Z,1.00
2023-10-31T15:11:05.693Z,1.00
2023-10-31T15:13:32.858Z,1.00
2023-10-31T15:16:00.100Z,1.38
2023-10-31T15:18:27.396Z,1.10
2023-10-31T15:20:56.632Z,1.05
2023-10-31T15:23:23.880Z,1.23
2023-10-31T15:25:51.150Z,1.50
2023-10-31T15:28:18.399Z,1.00
2023-10-31T15:30:45.591Z,1.48
2023-10-31T15:33:12.979Z,1.70
2023-10-31T15:35:40.253Z,1.50
2023-10-31T15:38:07.548Z,1.20
2023-10-31T15:40:34.724Z,1.60
2023-10-31T15:43:02.165Z,1.27
2023-10-31T15:45:29.508Z,1.40
2023-10-31T15:47:56.761Z,1.27
2023-10-31T15:50:24.059Z,1.60
2023-10-31T15:52:51.201Z,1.50
2023-10-31T15:55:18.402Z,1.30
2023-10-31T15:57:45.582Z,1.40
2023-10-31T16:00:13.711Z,1.60
2023-10-31T16:02:41.301Z,1.20
2023-10-31T16:05:08.670Z,1.48
2023-10-31T16:07:38.578Z,1.88
2023-10-31T16:10:06.382Z,2.30
2023-10-31T16:12:33.602Z,2.05
2023-10-31T16:15:00.829Z,1.55
2023-10-31T16:17:28.143Z,5.35
2023-10-31T16:19:55.439Z,4.93
2023-10-31T16:22:22.939Z,3.33
2023-10-31T16:24:52.531Z,2.67
2023-10-31T16:27:19.815Z,2.80
2023-10-31T16:29:46.973Z,2.20
2023-10-31T16:32:14.768Z,6.35
2023-10-31T16:34:44.751Z,16.80
2023-10-31T16:37:12.170Z,4.28
2023-10-31T16:39:39.367Z,2.22
2023-10-31T16:42:06.725Z,2.33
2023-10-31T16:44:33.949Z,2.30
2023-10-31T16:47:01.852Z,2.30
2023-10-31T16:49:29.117Z,2.05
2023-10-31T16:51:56.344Z,2.00
2023-10-31T16:54:23.555Z,2.08
2023-10-31T16:56:50.780Z,2.05
2023-10-31T16:59:17.945Z,2.30
2023-10-31T17:01:45.269Z,3.25
2023-10-31T17:04:12.643Z,3.90
2023-10-31T17:06:39.874Z,5.05
2023-10-31T17:09:07.107Z,7.78
2023-10-31T17:11:34.326Z,6.43
2023-10-31T17:14:01.829Z,5.38
2023-10-31T17:16:29.053Z,6.45
2023-10-31T17:18:56.353Z,6.70
2023-10-31T17:21:23.661Z,5.75
2023-10-31T17:23:51.103Z,4.30
2023-10-31T17:26:18.307Z,3.00
2023-10-31T17:28:45.748Z,3.13
2023-10-31T17:31:14.163Z,2.70
2023-10-31T17:33:44.355Z,2.47
2023-10-31T17:36:12.155Z,2.60
2023-10-31T17:38:39.431Z,2.65
2023-10-31T17:41:06.766Z,2.30
2023-10-31T17:43:34.322Z,2.30
2023-10-31T17:46:01.602Z,2.55
2023-10-31T17:48:28.867Z,2.70
2023-10-31T17:50:56.844Z,3.10
2023-10-31T17:53:24.144Z,2.90
2023-10-31T17:55:51.388Z,3.80
2023-10-31T17:58:18.528Z,4.70
2023-10-31T18:00:46.041Z,4.20
2023-10-31T18:03:13.737Z,4.05
2023-10-31T18:05:41.112Z,4.38
2023-10-31T18:08:09.027Z,4.72
2023-10-31T18:10:36.976Z,4.22
2023-10-31T18:13:05.156Z,4.10
2023-10-31T18:15:34.294Z,3.83
2023-10-31T18:18:01.458Z,3.50
2023-10-31T18:20:28.607Z,4.22
2023-10-31T18:22:55.823Z,5.13
2023-10-31T18:25:22.999Z,4.60
2023-10-31T18:27:50.269Z,4.72
2023-10-31T18:30:20.333Z,4.18
2023-10-31T18:32:47.585Z,5.00
2023-10-31T18:35:14.925Z,4.60
2023-10-31T18:37:42.046Z,4.90
2023-10-31T18:40:10.469Z,6.00
2023-10-31T18:42:38.567Z,5.65
2023-10-31T18:45:05.968Z,7.63
2023-10-31T18:47:33.151Z,7.63
2023-10-31T18:50:00.735Z,8.35
2023-10-31T18:52:27.968Z,8.02
2023-10-31T18:55:00.722Z,6.20
2023-10-31T18:57:30.763Z,4.10
2023-10-31T18:59:58.389Z,2.65
2023-10-31T19:02:25.637Z,2.55
2023-10-31T19:04:52.900Z,2.58
2023-10-31T19:07:20.089Z,2.78
2023-10-31T19:09:47.318Z,2.60
2023-10-31T19:12:14.568Z,3.30
2023-10-31T19:14:41.856Z,3.65
2023-10-31T19:17:09.756Z,3.47
2023-10-31T19:19:37.042Z,3.05
2023-10-31T19:22:04.299Z,3.20
2023-10-31T19:24:31.463Z,3.37
2023-10-31T19:26:58.677Z,3.97
2023-10-31T19:29:26.018Z,3.40
2023-10-31T19:31:53.308Z,3.80
2023-10-31T19:34:20.544Z,4.50
2023-10-31T19:36:47.748Z,4.07
2023-10-31T19:39:14.948Z,4.13
2023-10-31T19:41:42.209Z,3.80
2023-10-31T19:44:09.461Z,3.65
2023-10-31T19:46:36.605Z,3.47
2023-10-31T19:49:04.756Z,3.63
2023-10-31T19:51:31.986Z,2.80
2023-10-31T19:53:59.207Z,2.83
2023-10-31T19:56:26.388Z,2.60
2023-10-31T19:58:53.630Z,2.40
2023-10-31T20:01:21.826Z,2.50
2023-10-31T20:03:49.582Z,2.67
2023-10-31T20:06:16.874Z,2.50
2023-10-31T20:08:44.281Z,2.80
2023-10-31T20:11:12.681Z,2.30
2023-10-31T20:13:40.665Z,2.30
2023-10-31T20:16:08.608Z,2.38
2023-10-31T20:18:35.997Z,2.13
2023-10-31T20:21:03.409Z,2.38
2023-10-31T20:23:30.664Z,2.50
2023-10-31T20:25:58.336Z,2.97
2023-10-31T20:28:25.564Z,2.85
2023-10-31T20:30:52.806Z,2.55
2023-10-31T20:33:20.070Z,2.22
2023-10-31T20:35:47.259Z,2.35
2023-10-31T20:38:14.461Z,1.83
2023-10-31T20:40:41.563Z,2.20
2023-10-31T20:43:09.792Z,2.33
2023-10-31T20:45:39.383Z,2.28
2023-10-31T20:48:06.989Z,2.25
2023-10-31T20:50:34.288Z,2.08
2023-10-31T20:53:03.919Z,2.00
2023-10-31T20:55:31.141Z,1.70
2023-10-31T20:57:58.387Z,1.90
2023-10-31T21:00:26.373Z,1.60
2023-10-31T21:02:56.164Z,1.35
2023-10-31T21:05:23.771Z,1.10
2023-10-31T21:07:51.036Z,1.20
2023-10-31T21:10:18.218Z,1.13
2023-10-31T21:12:45.373Z,1.40
2023-10-31T21:15:12.838Z,1.40
2023-10-31T21:17:40.147Z,1.30
2023-10-31T21:20:07.853Z,1.20
2023-10-31T21:22:37.472Z,1.30
2023-10-31T21:25:05.036Z,1.20
2023-10-31T21:27:32.281Z,1.30
2023-10-31T21:29:59.691Z,1.40
2023-10-31T21:32:28.461Z,1.45
2023-10-31T21:34:55.741Z,1.70
2023-10-31T21:37:23.869Z,1.80
2023-10-31T21:39:51.022Z,1.67
2023-10-31T21:42:18.216Z,1.90
2023-10-31T21:44:45.487Z,1.70
2023-10-31T21:47:12.742Z,1.70
2023-10-31T21:49:39.929Z,1.70
2023-10-31T21:52:07.267Z,1.80
2023-10-31T21:54:34.483Z,1.90
2023-10-31T21:57:01.587Z,2.00
2023-10-31T21:59:29.564Z,2.00
2023-10-31T22:01:56.820Z,1.90
2023-10-31T22:04:24.778Z,1.75
2023-10-31T22:06:52.018Z,1.90
2023-10-31T22:09:19.394Z,2.03
2023-10-31T22:11:46.622Z,1.85
2023-10-31T22:14:13.814Z,2.08
2023-10-31T22:16:40.985Z,1.90
2023-10-31T22:19:09.220Z,1.98
2023-10-31T22:21:36.637Z,1.90
2023-10-31T22:24:05.109Z,1.70
2023-10-31T22:26:32.400Z,2.75
2023-10-31T22:29:01.068Z,1.95
2023-10-31T22:31:28.341Z,2.05
2023-10-31T22:33:55.845Z,1.75
2023-10-31T22:36:23.147Z,1.80
2023-10-31T22:38:50.369Z,1.77
2023-10-31T22:41:17.623Z,1.77
2023-10-31T22:43:44.795Z,1.63
2023-10-31T22:46:12.310Z,1.80
2023-10-31T22:48:39.495Z,1.77
2023-10-31T22:51:06.751Z,1.90
2023-10-31T22:53:35.084Z,1.70
2023-10-31T22:56:04.067Z,1.63
2023-10-31T22:58:31.299Z,1.60
2023-10-31T23:00:58.561Z,1.60
2023-10-31T23:03:27.204Z,1.48
2023-10-31T23:05:55.514Z,1.60
2023-10-31T23:08:22.753Z,1.48
2023-10-31T23:10:49.941Z,1.30
2023-10-31T23:13:17.275Z,1.50
2023-10-31T23:15:44.419Z,1.42
2023-10-31T23:18:11.624Z,1.20
2023-10-31T23:20:39.570Z,1.25
2023-10-31T23:23:06.862Z,1.20
2023-10-31T23:25:34.072Z,1.35
2023-10-31T23:28:01.572Z,1.50
2023-10-31T23:30:28.982Z,1.40
2023-10-31T23:32:56.164Z,1.20
2023-10-31T23:35:23.370Z,1.38
2023-10-31T23:37:50.611Z,1.20
2023-10-31T23:40:17.866Z,1.20
2023-10-31T23:42:45.023Z,1.27
2023-10-31T23:45:12.264Z,1.30
2023-10-31T23:47:39.520Z,1.57
2023-10-31T23:50:07.224Z,1.50
2023-10-31T23:52:34.701Z,1.50
2023-10-31T23:55:02.162Z,1.35
2023-10-31T23:57:30.103Z,1.70
